Time;durP1;ratioP1;P1;durP2;ratioP2;P2;SDS_P1;SDS_P2;PMS_P1;PMS_P2;Temp;Humidity;BMP_temperature;BMP_pressure;BME280_temperature;BME280_humidity;BME280_pressure;Samples;Min_cycle;Max_cycle;Signal;HPM_P1;HPM_P2
2021/07/30 00:00:28;;;;;;;4.63;3.87;;;18.10;99.90;;;;;;5020070;28;20451;-80
2021/07/30 00:02:54;;;;;;;7.63;4.13;;;18.10;99.90;;;;;;5019828;28;20471;-80
2021/07/30 00:05:21;;;;;;;4.60;4.13;;;18.10;99.90;;;;;;5020023;28;20462;-80
2021/07/30 00:07:48;;;;;;;5.07;4.20;;;18.00;99.90;;;;;;5019320;28;20494;-80
2021/07/30 00:10:16;;;;;;;6.37;5.30;;;18.00;99.90;;;;;;5020965;28;20480;-80
2021/07/30 00:12:42;;;;;;;8.83;5.30;;;17.60;99.90;;;;;;5028535;28;20467;-79
2021/07/30 00:15:09;;;;;;;7.47;3.97;;;17.70;99.90;;;;;;5027527;28;20522;-78
2021/07/30 00:17:36;;;;;;;8.30;5.90;;;17.70;99.90;;;;;;5022943;28;20487;-81
2021/07/30 00:20:04;;;;;;;7.40;3.87;;;17.60;99.90;;;;;;5020241;28;20471;-81
2021/07/30 00:22:31;;;;;;;3.80;3.50;;;17.50;99.90;;;;;;5019067;28;20468;-80
2021/07/30 00:24:57;;;;;;;5.40;4.23;;;17.50;99.90;;;;;;5019883;28;20444;-80
2021/07/30 00:27:25;;;;;;;6.27;3.97;;;17.50;99.90;;;;;;5020676;28;20813;-80
2021/07/30 00:29:52;;;;;;;6.80;4.10;;;17.40;99.90;;;;;;5020105;28;20922;-80
2021/07/30 00:32:18;;;;;;;5.87;4.07;;;17.40;99.90;;;;;;5019352;28;20472;-80
2021/07/30 00:34:45;;;;;;;4.50;3.93;;;17.40;99.90;;;;;;5018714;28;20444;-80
2021/07/30 00:37:12;;;;;;;5.80;4.60;;;17.20;99.90;;;;;;5019559;28;20534;-78
2021/07/30 00:39:38;;;;;;;4.77;4.40;;;17.40;99.90;;;;;;5035876;28;20455;-80
2021/07/30 00:42:05;;;;;;;7.50;5.17;;;17.50;99.90;;;;;;5030246;28;20471;-80
2021/07/30 00:44:33;;;;;;;5.80;4.70;;;17.50;99.90;;;;;;5024709;28;20428;-80
2021/07/30 00:47:00;;;;;;;5.00;4.07;;;17.50;99.90;;;;;;5018995;28;20452;-80
2021/07/30 00:49:26;;;;;;;4.73;4.33;;;17.40;99.90;;;;;;5018553;28;20518;-80
2021/07/30 00:51:53;;;;;;;6.07;3.80;;;17.50;99.90;;;;;;5018973;28;20451;-80
2021/07/30 00:54:20;;;;;;;4.33;3.53;;;17.40;99.90;;;;;;5021341;28;20451;-79
2021/07/30 00:56:47;;;;;;;7.00;3.50;;;17.40;99.90;;;;;;5031143;28;20467;-79
2021/07/30 00:59:14;;;;;;;6.90;3.13;;;17.30;99.90;;;;;;5028960;28;20443;-80
2021/07/30 01:01:42;;;;;;;6.17;3.63;;;16.90;99.90;;;;;;5024207;28;20813;-80
2021/07/30 01:04:08;;;;;;;5.80;4.10;;;17.00;99.90;;;;;;5021753;28;20448;-80
2021/07/30 01:06:35;;;;;;;4.33;3.10;;;17.00;99.90;;;;;;5018079;28;20451;-80
2021/07/30 01:09:02;;;;;;;3.20;3.00;;;16.90;99.90;;;;;;5018465;28;20447;-80
2021/07/30 01:11:28;;;;;;;7.77;3.87;;;16.90;99.90;;;;;;5018050;28;20456;-80
2021/07/30 01:13:55;;;;;;;7.07;3.60;;;17.00;99.90;;;;;;5028162;28;20468;-79
2021/07/30 01:16:21;;;;;;;4.57;2.93;;;17.10;99.90;;;;;;5031970;28;20448;-79
2021/07/30 01:18:49;;;;;;;7.83;4.00;;;17.00;99.90;;;;;;5027683;28;20514;-79
2021/07/30 01:21:22;;;;;;;3.80;3.50;;;17.10;99.90;;;;;;5026956;28;20444;-79
2021/07/30 01:23:51;;;;;;;6.40;3.10;;;17.00;99.90;;;;;;5026901;28;20483;-79
2021/07/30 01:26:18;;;;;;;8.80;4.00;;;16.90;99.90;;;;;;5019313;28;20455;-80
2021/07/30 01:28:45;;;;;;;6.93;3.80;;;16.80;99.90;;;;;;5017153;28;20502;-81
2021/07/30 01:31:12;;;;;;;5.73;3.30;;;16.70;99.90;;;;;;5017897;28;20460;-80
2021/07/30 01:33:39;;;;;;;4.00;3.33;;;16.80;99.90;;;;;;5016517;28;20525;-80
2021/07/30 01:36:06;;;;;;;4.33;3.93;;;16.80;99.90;;;;;;5017661;28;20455;-80
2021/07/30 01:38:32;;;;;;;4.97;3.83;;;16.80;99.90;;;;;;5015985;28;20508;-80
2021/07/30 01:41:09;;;;;;;5.10;4.63;;;16.80;99.90;;;;;;5018912;28;20521;-80
2021/07/30 01:43:36;;;;;;;4.10;3.50;;;16.80;99.90;;;;;;5018418;28;20472;-80
2021/07/30 01:46:03;;;;;;;4.77;3.87;;;16.90;99.90;;;;;;5018535;28;20447;-80
2021/07/30 01:48:30;;;;;;;7.10;3.70;;;16.90;99.90;;;;;;5018639;28;20448;-80
2021/07/30 01:50:57;;;;;;;4.10;3.23;;;16.90;99.90;;;;;;5017513;28;20475;-80
2021/07/30 01:53:23;;;;;;;8.27;3.27;;;16.90;99.90;;;;;;5017378;28;20543;-81
2021/07/30 01:55:50;;;;;;;3.87;3.57;;;16.90;99.90;;;;;;5017481;28;20474;-81
2021/07/30 01:58:18;;;;;;;4.03;3.63;;;16.90;99.90;;;;;;5017127;28;20529;-80
2021/07/30 02:00:44;;;;;;;4.63;3.60;;;16.70;99.90;;;;;;5016753;28;20498;-79
2021/07/30 02:03:11;;;;;;;5.23;3.43;;;16.70;99.90;;;;;;5017198;28;20491;-80
2021/07/30 02:05:38;;;;;;;5.63;3.57;;;16.50;99.90;;;;;;5016825;28;20490;-79
2021/07/30 02:08:05;;;;;;;3.80;3.40;;;16.30;99.90;;;;;;5016910;28;20447;-79
2021/07/30 02:10:32;;;;;;;5.07;3.90;;;16.40;99.90;;;;;;5016919;28;20443;-80
2021/07/30 02:15:44;;;;;;;5.20;3.20;;;16.30;99.90;;;;;;5028803;28;20523;-79
2021/07/30 02:18:10;;;;;;;5.90;3.43;;;16.20;99.90;;;;;;5029564;28;20487;-79
2021/07/30 02:20:38;;;;;;;7.67;3.80;;;16.40;99.90;;;;;;5034037;28;20436;-80
2021/07/30 02:23:04;;;;;;;4.87;3.20;;;16.40;99.90;;;;;;5017508;28;20499;-79
2021/07/30 02:25:31;;;;;;;3.93;3.50;;;16.30;99.90;;;;;;5017321;28;20514;-80
2021/07/30 02:27:57;;;;;;;3.67;3.37;;;16.40;99.90;;;;;;5016956;28;20476;-80
2021/07/30 02:30:24;;;;;;;9.67;3.73;;;16.40;99.90;;;;;;5016534;28;20452;-80
2021/07/30 02:32:52;;;;;;;6.10;3.57;;;16.30;99.90;;;;;;5016811;28;20837;-80
2021/07/30 02:35:18;;;;;;;4.50;3.67;;;16.30;99.90;;;;;;5016144;28;20484;-81
2021/07/30 02:37:45;;;;;;;7.83;4.63;;;16.30;99.90;;;;;;5023543;28;20918;-80
2021/07/30 02:40:13;;;;;;;5.10;3.70;;;16.20;99.90;;;;;;5032238;28;20459;-78
2021/07/30 02:42:39;;;;;;;4.50;4.10;;;16.20;99.90;;;;;;5033629;28;20850;-78
2021/07/30 02:45:07;;;;;;;7.30;4.20;;;16.20;99.90;;;;;;5035239;28;20462;-78
2021/07/30 02:47:34;;;;;;;4.10;3.80;;;16.20;99.90;;;;;;5029123;28;20456;-79
2021/07/30 02:50:02;;;;;;;3.67;3.20;;;16.20;99.90;;;;;;5028368;28;20452;-79
2021/07/30 02:52:28;;;;;;;3.83;3.53;;;16.20;99.90;;;;;;5027848;28;20502;-79
2021/07/30 02:54:55;;;;;;;4.00;3.70;;;16.10;99.90;;;;;;5026910;28;20440;-80
2021/07/30 02:57:22;;;;;;;4.30;3.90;;;16.10;99.90;;;;;;5025746;28;20443;-80
2021/07/30 02:59:48;;;;;;;5.07;3.83;;;16.10;99.90;;;;;;5021926;28;20488;-80
2021/07/30 03:02:15;;;;;;;6.17;3.20;;;16.20;99.90;;;;;;5026169;28;20442;-80
2021/07/30 03:04:41;;;;;;;4.37;3.37;;;16.20;99.90;;;;;;5017869;28;20471;-81
2021/07/30 03:07:09;;;;;;;5.23;4.10;;;16.10;99.90;;;;;;5016934;28;20879;-80
2021/07/30 03:09:36;;;;;;;4.53;4.10;;;16.10;99.90;;;;;;5017404;28;20858;-80
2021/07/30 03:12:03;;;;;;;5.43;3.90;;;16.10;99.90;;;;;;5016755;28;20814;-80
2021/07/30 03:14:29;;;;;;;5.57;5.03;;;16.00;99.90;;;;;;5016620;28;20544;-80
2021/07/30 03:16:56;;;;;;;5.70;4.70;;;16.00;99.90;;;;;;5016615;28;20448;-80
2021/07/30 03:19:22;;;;;;;5.80;4.50;;;16.00;99.90;;;;;;5016687;28;20490;-80
2021/07/30 03:21:49;;;;;;;7.20;3.93;;;16.00;99.90;;;;;;5017674;28;20447;-80
2021/07/30 03:24:17;;;;;;;6.37;3.70;;;15.90;99.90;;;;;;5017752;28;20448;-80
2021/07/30 03:26:43;;;;;;;4.77;4.23;;;15.90;99.90;;;;;;5024476;28;20452;-80
2021/07/30 03:29:10;;;;;;;5.67;3.60;;;15.90;99.90;;;;;;5017104;28;20579;-80
2021/07/30 03:31:36;;;;;;;6.53;3.97;;;16.00;99.90;;;;;;5016857;28;21003;-80
2021/07/30 03:34:03;;;;;;;4.60;3.60;;;16.00;99.90;;;;;;5015618;28;20491;-80
2021/07/30 03:36:29;;;;;;;4.40;4.10;;;16.00;99.90;;;;;;5016175;28;20448;-80
2021/07/30 03:38:56;;;;;;;4.43;4.03;;;16.10;99.90;;;;;;5015034;28;20480;-79
2021/07/30 03:41:24;;;;;;;4.90;4.17;;;16.00;99.90;;;;;;5014936;28;20487;-80
2021/07/30 03:43:51;;;;;;;4.53;4.23;;;16.00;99.90;;;;;;5015481;28;20511;-80
2021/07/30 03:46:17;;;;;;;5.87;3.60;;;16.10;99.90;;;;;;5019703;28;20476;-80
2021/07/30 03:48:44;;;;;;;4.40;3.97;;;16.10;99.90;;;;;;5017834;28;20444;-80
2021/07/30 03:51:10;;;;;;;4.97;4.50;;;16.10;99.90;;;;;;5018234;28;20452;-81
2021/07/30 03:53:37;;;;;;;6.50;4.10;;;16.00;99.90;;;;;;5018119;28;20492;-81
2021/07/30 03:56:12;;;;;;;3.67;3.40;;;16.10;99.90;;;;;;5026844;28;20452;-80
2021/07/30 03:58:40;;;;;;;4.73;4.10;;;16.20;99.90;;;;;;5026957;28;20490;-80
2021/07/30 04:01:08;;;;;;;6.80;4.03;;;16.20;99.90;;;;;;5032663;28;20440;-80
2021/07/30 04:03:34;;;;;;;7.30;3.70;;;16.20;99.90;;;;;;5022469;28;20881;-80
2021/07/30 04:06:02;;;;;;;4.57;3.87;;;16.30;99.90;;;;;;5021285;28;20943;-79
2021/07/30 04:08:29;;;;;;;4.60;4.13;;;16.30;99.90;;;;;;5023884;28;20522;-79
2021/07/30 04:10:55;;;;;;;3.77;3.47;;;16.10;99.90;;;;;;5024327;28;20475;-79
2021/07/30 04:13:22;;;;;;;4.03;3.67;;;15.70;99.90;;;;;;5022551;28;20784;-80
2021/07/30 04:15:50;;;;;;;4.40;3.60;;;16.10;99.90;;;;;;5020699;28;20448;-81
2021/07/30 04:18:17;;;;;;;5.23;4.23;;;16.10;99.90;;;;;;5018954;28;20515;-80
2021/07/30 04:20:43;;;;;;;3.70;3.40;;;16.10;99.90;;;;;;5018847;28;20452;-80
2021/07/30 04:23:10;;;;;;;5.40;3.70;;;15.90;99.90;;;;;;5018625;28;20864;-80
2021/07/30 04:25:42;;;;;;;5.27;3.90;;;15.80;99.90;;;;;;5018428;28;20443;-80
2021/07/30 04:28:09;;;;;;;5.70;3.50;;;15.90;99.90;;;;;;5018164;28;20456;-80
2021/07/30 04:30:36;;;;;;;5.90;3.40;;;15.90;99.90;;;;;;5019929;28;20479;-80
2021/07/30 04:33:03;;;;;;;5.70;3.87;;;16.00;99.90;;;;;;5017591;28;21032;-80
2021/07/30 04:35:30;;;;;;;6.33;4.40;;;16.00;99.90;;;;;;5019742;28;20766;-79
2021/07/30 04:37:57;;;;;;;4.20;3.80;;;16.00;99.90;;;;;;5016960;28;20491;-78
2021/07/30 04:40:24;;;;;;;5.27;3.57;;;16.10;99.90;;;;;;5016651;28;20495;-79
2021/07/30 04:42:50;;;;;;;5.87;3.53;;;15.90;99.90;;;;;;5016531;28;20908;-79
2021/07/30 04:45:17;;;;;;;8.37;4.37;;;16.00;99.90;;;;;;5022883;28;20452;-78
2021/07/30 04:47:44;;;;;;;6.40;4.20;;;15.90;99.90;;;;;;5024269;28;20459;-78
2021/07/30 04:50:12;;;;;;;4.80;4.40;;;16.00;99.90;;;;;;5024789;28;20472;-78
2021/07/30 04:52:38;;;;;;;7.10;4.30;;;16.00;99.90;;;;;;5022044;28;20480;-79
2021/07/30 04:55:06;;;;;;;7.30;4.10;;;16.00;99.90;;;;;;5018448;28;20452;-80
2021/07/30 04:57:33;;;;;;;6.63;5.33;;;16.00;99.90;;;;;;5017655;28;20864;-79
2021/07/30 05:00:00;;;;;;;7.00;4.10;;;16.10;99.90;;;;;;5017948;28;20897;-79
2021/07/30 05:02:26;;;;;;;6.83;4.40;;;16.10;99.90;;;;;;5018672;28;21032;-79
2021/07/30 05:04:54;;;;;;;8.40;4.07;;;16.30;99.90;;;;;;5018254;28;21005;-80
2021/07/30 05:07:23;;;;;;;5.33;4.00;;;16.30;99.90;;;;;;5017660;28;20467;-80
2021/07/30 05:09:49;;;;;;;5.40;4.00;;;16.40;99.90;;;;;;5017851;28;20448;-80
2021/07/30 05:12:16;;;;;;;4.90;4.40;;;16.50;99.90;;;;;;5017491;28;20503;-80
2021/07/30 05:14:43;;;;;;;4.70;3.80;;;16.50;99.90;;;;;;5017766;28;20452;-80
2021/07/30 05:17:09;;;;;;;6.73;3.97;;;16.60;99.90;;;;;;5017711;28;20488;-80
2021/07/30 05:19:36;;;;;;;6.60;4.17;;;16.50;99.90;;;;;;5017331;28;20941;-80
2021/07/30 05:22:02;;;;;;;5.67;3.30;;;16.60;99.90;;;;;;5017543;28;20523;-80
2021/07/30 05:24:30;;;;;;;7.67;3.83;;;16.70;99.90;;;;;;5017757;28;20456;-80
2021/07/30 05:26:57;;;;;;;8.88;4.45;;;16.70;99.90;;;;;;5016850;28;20443;-80
2021/07/30 05:29:23;;;;;;;5.47;4.50;;;16.70;99.90;;;;;;5017839;28;20299;-80
2021/07/30 05:31:50;;;;;;;4.80;4.10;;;16.60;99.90;;;;;;5017150;28;20487;-80
2021/07/30 05:34:16;;;;;;;8.17;3.87;;;16.90;99.90;;;;;;5016739;28;20452;-80
2021/07/30 05:36:43;;;;;;;8.73;4.10;;;17.00;99.90;;;;;;5016925;28;20490;-80
2021/07/30 05:39:09;;;;;;;6.80;3.80;;;17.10;99.90;;;;;;5016769;28;20483;-80
2021/07/30 05:41:37;;;;;;;5.10;3.50;;;17.10;99.90;;;;;;5016833;28;20480;-79
2021/07/30 05:44:04;;;;;;;5.83;3.70;;;17.10;99.90;;;;;;5017008;28;20534;-79
2021/07/30 05:46:31;;;;;;;5.73;3.27;;;17.10;99.90;;;;;;5016510;28;20815;-79
2021/07/30 05:49:00;;;;;;;16.23;9.90;;;17.20;99.90;;;;;;5016572;28;20985;-80
2021/07/30 05:51:26;;;;;;;7.03;4.10;;;17.30;99.90;;;;;;5016137;28;20533;-79
2021/07/30 05:53:53;;;;;;;7.90;4.93;;;17.30;99.90;;;;;;5015830;28;20507;-79
2021/07/30 05:56:19;;;;;;;5.97;3.87;;;17.40;99.90;;;;;;5024218;28;20452;-79
2021/07/30 05:58:47;;;;;;;5.03;4.03;;;17.40;99.90;;;;;;5026561;28;20483;-79
2021/07/30 06:01:14;;;;;;;8.07;3.50;;;17.50;99.90;;;;;;5017241;28;20502;-80
2021/07/30 06:03:43;;;;;;;3.97;3.50;;;17.60;99.90;;;;;;5017331;28;20475;-81
2021/07/30 06:06:10;;;;;;;7.97;5.93;;;17.60;99.90;;;;;;5017628;28;20448;-80
2021/07/30 06:08:37;;;;;;;7.13;5.60;;;17.70;99.90;;;;;;5019206;28;20578;-79
2021/07/30 06:11:04;;;;;;;7.53;4.97;;;17.80;99.90;;;;;;5017247;28;20479;-80
2021/07/30 06:13:31;;;;;;;3.80;3.33;;;17.90;99.90;;;;;;5018537;28;20841;-79
2021/07/30 06:15:59;;;;;;;7.27;3.00;;;17.90;99.90;;;;;;5019022;28;20463;-80
2021/07/30 06:18:25;;;;;;;4.77;3.70;;;18.00;99.90;;;;;;5019062;28;20487;-80
2021/07/30 06:20:52;;;;;;;5.10;4.23;;;18.00;99.90;;;;;;5017328;28;20499;-79
2021/07/30 06:23:19;;;;;;;6.80;3.13;;;18.10;99.90;;;;;;5017185;28;20555;-79
2021/07/30 06:25:46;;;;;;;3.40;3.20;;;18.10;99.90;;;;;;5018939;28;20451;-79
2021/07/30 06:28:13;;;;;;;6.50;3.60;;;18.30;99.90;;;;;;5019329;28;20447;-80
2021/07/30 06:30:39;;;;;;;6.10;3.90;;;18.30;99.90;;;;;;5024012;28;20439;-80
2021/07/30 06:33:10;;;;;;;4.57;3.30;;;18.40;99.90;;;;;;5019040;28;20468;-79
2021/07/30 06:35:37;;;;;;;10.33;3.73;;;18.50;99.90;;;;;;5018530;28;20452;-79
2021/07/30 06:38:04;;;;;;;10.20;4.50;;;18.60;99.90;;;;;;5025483;28;20454;-79
2021/07/30 06:40:30;;;;;;;5.53;3.77;;;18.60;99.90;;;;;;5025780;28;20495;-78
2021/07/30 06:42:58;;;;;;;7.33;3.90;;;18.70;99.90;;;;;;5023387;28;20472;-80
2021/07/30 06:45:24;;;;;;;5.90;3.80;;;18.80;99.90;;;;;;5020696;28;20462;-79
2021/07/30 06:47:51;;;;;;;3.40;2.97;;;18.80;99.90;;;;;;5017894;28;20519;-80
2021/07/30 06:50:21;;;;;;;5.33;3.17;;;18.90;99.90;;;;;;5022688;28;20546;-80
2021/07/30 06:52:48;;;;;;;5.40;3.60;;;19.00;99.90;;;;;;5022748;28;20472;-79
2021/07/30 06:55:15;;;;;;;7.73;3.80;;;19.10;99.90;;;;;;5020957;28;20447;-78
2021/07/30 06:57:41;;;;;;;4.70;3.30;;;19.00;99.90;;;;;;5025488;28;20463;-77
2021/07/30 07:00:09;;;;;;;4.87;2.97;;;19.00;99.90;;;;;;5024518;28;20480;-79
2021/07/30 07:02:36;;;;;;;6.17;3.30;;;19.10;99.90;;;;;;5021510;28;20475;-80
2021/07/30 07:05:02;;;;;;;11.63;4.07;;;19.10;99.90;;;;;;5016662;28;20507;-80
2021/07/30 07:07:30;;;;;;;8.00;3.87;;;19.10;99.90;;;;;;5019459;28;20452;-78
2021/07/30 07:09:57;;;;;;;6.03;3.93;;;19.20;99.90;;;;;;5019083;28;20822;-80
2021/07/30 07:12:23;;;;;;;4.97;3.90;;;19.20;99.90;;;;;;5021709;28;20483;-81
2021/07/30 07:14:50;;;;;;;6.70;3.93;;;19.30;99.90;;;;;;5019903;28;20514;-79
2021/07/30 07:17:18;;;;;;;4.18;3.78;;;19.40;99.90;;;;;;5020310;28;20446;-78
2021/07/30 07:19:45;;;;;;;6.50;4.20;;;19.40;99.90;;;;;;5021769;28;20213;-78
2021/07/30 07:22:11;;;;;;;7.83;3.83;;;19.40;99.90;;;;;;5019577;28;20472;-78
2021/07/30 07:24:40;;;;;;;4.80;3.10;;;19.50;99.90;;;;;;5021123;28;20448;-79
2021/07/30 07:27:07;;;;;;;6.43;3.60;;;19.60;99.90;;;;;;5021021;28;20456;-78
2021/07/30 07:29:34;;;;;;;5.73;3.30;;;19.70;99.90;;;;;;5018032;28;20494;-78
2021/07/30 07:32:01;;;;;;;6.70;3.90;;;19.80;99.90;;;;;;5021098;28;20464;-78
2021/07/30 07:34:28;;;;;;;6.47;3.60;;;19.90;99.90;;;;;;5022751;28;20441;-79
2021/07/30 07:36:54;;;;;;;4.90;4.03;;;19.90;99.90;;;;;;5035019;28;20436;-78
2021/07/30 07:39:21;;;;;;;7.20;3.53;;;19.90;99.90;;;;;;5029587;28;20990;-78
2021/07/30 07:41:49;;;;;;;7.70;5.20;;;20.30;99.90;;;;;;5021757;28;20935;-80
2021/07/30 07:44:22;;;;;;;7.50;4.20;;;20.00;99.90;;;;;;5020960;28;20455;-81
2021/07/30 07:46:49;;;;;;;6.27;3.93;;;20.20;99.90;;;;;;5020379;28;20486;-79
2021/07/30 07:49:16;;;;;;;9.40;4.00;;;20.20;99.90;;;;;;5019640;28;20480;-78
2021/07/30 07:51:54;;;;;;;7.60;3.87;;;20.00;99.90;;;;;;5019514;28;20885;-78
2021/07/30 07:54:20;;;;;;;8.97;3.40;;;20.30;99.90;;;;;;5021398;28;20448;-80
2021/07/30 07:56:51;;;;;;;5.70;3.70;;;20.30;99.90;;;;;;5021513;28;20511;-78
2021/07/30 07:59:17;;;;;;;5.97;4.60;;;20.30;99.90;;;;;;5019889;28;20434;-79
2021/07/30 08:01:44;;;;;;;4.30;3.67;;;20.20;99.90;;;;;;5019596;28;20451;-79
2021/07/30 08:04:10;;;;;;;7.60;4.67;;;20.50;99.90;;;;;;5020568;28;20475;-81
2021/07/30 08:06:37;;;;;;;4.67;3.57;;;20.50;99.90;;;;;;5020202;28;20459;-80
2021/07/30 08:09:04;;;;;;;5.73;3.30;;;20.60;99.90;;;;;;5022034;28;20460;-79
2021/07/30 08:11:30;;;;;;;6.07;3.40;;;20.70;99.90;;;;;;5019774;28;20605;-79
2021/07/30 08:13:58;;;;;;;5.50;3.93;;;20.90;99.90;;;;;;5019038;28;20478;-79
2021/07/30 08:16:26;;;;;;;5.60;4.07;;;20.80;99.90;;;;;;5019674;28;20502;-80
2021/07/30 08:18:53;;;;;;;4.87;3.40;;;20.90;99.90;;;;;;5020478;28;20463;-80
2021/07/30 08:21:19;;;;;;;9.20;5.87;;;20.90;99.90;;;;;;5020780;28;20498;-80
2021/07/30 08:23:46;;;;;;;10.70;4.70;;;21.00;99.90;;;;;;5021360;28;20517;-81
2021/07/30 08:26:13;;;;;;;5.27;4.87;;;21.10;99.90;;;;;;5020129;28;20439;-80
2021/07/30 08:28:39;;;;;;;6.10;3.77;;;21.10;99.90;;;;;;5021283;28;20452;-80
2021/07/30 08:31:07;;;;;;;4.67;4.27;;;21.20;99.90;;;;;;5020374;28;20425;-81
2021/07/30 08:33:37;;;;;;;6.83;4.93;;;21.20;99.90;;;;;;5020879;28;20475;-81
2021/07/30 08:36:06;;;;;;;14.50;8.10;;;21.20;99.90;;;;;;5021946;28;20455;-81
2021/07/30 08:38:33;;;;;;;8.23;6.47;;;21.20;99.90;;;;;;5021817;28;20774;-82
2021/07/30 08:40:59;;;;;;;10.73;8.60;;;21.20;99.90;;;;;;5020862;28;20572;-81
2021/07/30 08:43:27;;;;;;;12.17;8.83;;;21.30;99.90;;;;;;5020672;28;21005;-81
2021/07/30 08:45:54;;;;;;;10.57;7.70;;;21.30;99.90;;;;;;5025830;28;20981;-80
2021/07/30 08:48:22;;;;;;;4.97;4.57;;;21.20;99.90;;;;;;5022558;28;20506;-81
2021/07/30 08:50:49;;;;;;;7.50;3.67;;;21.30;99.90;;;;;;5022196;28;20448;-82
2021/07/30 08:53:23;;;;;;;6.80;4.90;;;21.30;99.90;;;;;;5023622;28;21017;-81
2021/07/30 08:55:50;;;;;;;5.50;4.10;;;21.40;99.90;;;;;;5024391;28;20458;-81
2021/07/30 08:58:16;;;;;;;7.83;3.97;;;21.50;99.90;;;;;;5024263;28;20947;-81
2021/07/30 09:00:43;;;;;;;14.73;7.37;;;21.50;99.90;;;;;;5021106;28;20546;-81
2021/07/30 09:03:10;;;;;;;12.80;10.87;;;21.60;99.90;;;;;;5021662;28;20468;-81
2021/07/30 09:05:39;;;;;;;11.33;8.30;;;21.50;99.90;;;;;;5021238;28;20523;-81
2021/07/30 09:08:07;;;;;;;10.97;9.77;;;21.70;99.90;;;;;;5020994;28;20448;-81
2021/07/30 09:10:40;;;;;;;10.97;9.93;;;21.80;99.90;;;;;;5025772;28;20498;-81
2021/07/30 09:13:14;;;;;;;7.07;5.53;;;21.90;99.90;;;;;;5024333;28;20483;-81
2021/07/30 09:15:41;;;;;;;6.33;3.60;;;21.90;99.90;;;;;;5023495;28;20438;-82
2021/07/30 09:18:08;;;;;;;4.63;3.77;;;21.90;99.90;;;;;;5022050;28;20452;-82
2021/07/30 09:20:34;;;;;;;9.30;4.37;;;21.90;99.90;;;;;;5020962;28;20575;-82
2021/07/30 09:23:02;;;;;;;7.80;4.10;;;22.00;99.90;;;;;;5033867;28;20491;-80
2021/07/30 09:25:33;;;;;;;7.03;3.60;;;22.10;99.90;;;;;;5028056;28;20490;-82
2021/07/30 09:28:03;;;;;;;4.20;3.27;;;22.20;99.90;;;;;;5035952;28;20459;-82
2021/07/30 09:30:30;;;;;;;4.13;3.83;;;22.20;99.90;;;;;;5029128;28;20466;-81
2021/07/30 09:32:57;;;;;;;8.67;4.80;;;22.20;99.90;;;;;;5025352;28;20474;-81
2021/07/30 09:35:23;;;;;;;6.40;3.87;;;22.30;99.90;;;;;;5022694;28;20448;-81
2021/07/30 09:38:15;;;;;;;4.30;3.60;;;22.20;99.90;;;;;;5021729;28;20749;-81
2021/07/30 09:40:42;;;;;;;4.80;3.20;;;22.30;99.90;;;;;;5021416;28;20500;-81
2021/07/30 09:43:24;;;;;;;3.70;3.40;;;22.30;99.90;;;;;;5023451;28;20475;-81
2021/07/30 09:45:51;;;;;;;6.37;3.80;;;22.20;99.90;;;;;;5022252;28;20448;-82
2021/07/30 09:48:19;;;;;;;4.33;3.40;;;22.10;99.90;;;;;;5031253;28;20424;-80
2021/07/30 09:50:46;;;;;;;4.50;3.30;;;22.10;99.90;;;;;;5032084;28;20493;-80
2021/07/30 09:53:16;;;;;;;3.90;3.37;;;22.20;99.90;;;;;;5029624;28;20493;-81
2021/07/30 09:55:44;;;;;;;5.00;3.47;;;22.30;99.90;;;;;;5022952;28;20479;-81
2021/07/30 09:58:12;;;;;;;8.53;3.97;;;22.50;99.90;;;;;;5022040;28;20468;-81
2021/07/30 10:00:43;;;;;;;9.83;3.60;;;22.30;99.90;;;;;;5021515;28;20507;-82
2021/07/30 10:03:10;;;;;;;4.40;3.00;;;22.30;99.90;;;;;;5027123;28;20508;-82
2021/07/30 10:05:38;;;;;;;6.57;3.13;;;22.40;99.90;;;;;;5031535;28;20452;-80
2021/07/30 10:08:06;;;;;;;6.63;4.13;;;22.50;99.90;;;;;;5032465;28;20868;-80
2021/07/30 10:10:34;;;;;;;7.30;4.20;;;22.60;99.90;;;;;;5031045;28;20535;-81
2021/07/30 10:13:05;;;;;;;4.13;3.17;;;22.70;99.90;;;;;;5023963;28;20836;-81
2021/07/30 10:15:33;;;;;;;3.17;2.77;;;22.80;99.90;;;;;;5021236;28;20523;-81
2021/07/30 10:18:04;;;;;;;6.10;3.50;;;22.70;99.90;;;;;;5022634;28;20463;-81
2021/07/30 10:20:31;;;;;;;4.03;3.60;;;22.60;99.90;;;;;;5021762;28;20499;-81
2021/07/30 10:23:03;;;;;;;8.17;3.30;;;22.80;99.90;;;;;;5023541;28;20472;-81
2021/07/30 10:28:21;;;;;;;8.27;4.10;;;22.90;99.90;;;;;;5021345;28;20448;-82
2021/07/30 10:30:52;;;;;;;5.07;3.97;;;23.00;99.90;;;;;;5020626;28;20420;-81
2021/07/30 10:33:45;;;;;;;3.30;3.00;;;23.10;99.90;;;;;;5020918;28;20467;-82
2021/07/30 10:36:14;;;;;;;7.70;3.50;;;23.10;99.90;;;;;;5021507;28;20428;-81
2021/07/30 10:38:41;;;;;;;7.33;3.50;;;23.20;99.90;;;;;;5021328;28;20408;-81
2021/07/30 10:41:15;;;;;;;6.30;3.03;;;23.30;99.90;;;;;;5021379;28;20464;-82
2021/07/30 10:44:09;;;;;;;6.27;3.00;;;23.20;99.90;;;;;;5022330;28;20530;-81
2021/07/30 10:46:36;;;;;;;3.13;2.83;;;23.30;99.90;;;;;;5022043;28;20779;-81
2021/07/30 10:49:41;;;;;;;5.00;3.13;;;23.30;99.90;;;;;;5021714;28;20503;-81
2021/07/30 10:52:28;;;;;;;6.20;2.87;;;23.00;99.90;;;;;;5023162;28;21040;-82
2021/07/30 10:54:55;;;;;;;6.83;3.60;;;22.80;99.90;;;;;;5024573;28;20428;-81
2021/07/30 10:57:47;;;;;;;4.90;3.50;;;22.70;99.90;;;;;;5024504;28;20479;-81
2021/07/30 11:00:15;;;;;;;6.60;4.07;;;22.90;99.90;;;;;;5023653;28;20447;-81
2021/07/30 11:03:05;;;;;;;9.73;4.10;;;23.00;99.90;;;;;;5024219;28;20473;-81
2021/07/30 11:05:56;;;;;;;9.77;4.40;;;23.00;99.90;;;;;;5022747;28;20441;-81
2021/07/30 11:08:23;;;;;;;3.70;3.03;;;23.10;99.90;;;;;;5023187;28;20466;-80
2021/07/30 11:10:49;;;;;;;3.97;2.90;;;23.10;99.90;;;;;;5023993;28;20444;-81
2021/07/30 11:13:16;;;;;;;5.47;2.90;;;23.00;99.90;;;;;;5027712;28;20618;-81
2021/07/30 11:15:44;;;;;;;3.33;3.00;;;23.00;99.90;;;;;;5025801;28;20436;-81
2021/07/30 11:18:15;;;;;;;4.27;2.70;;;23.20;99.90;;;;;;5025286;28;20448;-81
2021/07/30 11:20:42;;;;;;;5.70;2.97;;;23.30;99.90;;;;;;5024650;28;20511;-81
2021/07/30 11:23:10;;;;;;;4.10;3.50;;;23.30;99.90;;;;;;5024700;28;20475;-81
2021/07/30 11:25:38;;;;;;;4.77;3.73;;;23.40;99.90;;;;;;5024583;28;20467;-81
2021/07/30 11:28:06;;;;;;;10.03;3.63;;;23.50;99.90;;;;;;5039272;28;20442;-80
2021/07/30 11:30:33;;;;;;;5.50;2.90;;;23.60;99.90;;;;;;5036661;28;20432;-79
2021/07/30 11:33:01;;;;;;;6.90;3.60;;;23.60;99.90;;;;;;5037160;28;20491;-82
2021/07/30 11:35:39;;;;;;;8.43;3.63;;;23.70;99.90;;;;;;5029665;28;20458;-81
2021/07/30 11:38:05;;;;;;;3.07;2.77;;;23.80;99.90;;;;;;5028926;28;20470;-81
2021/07/30 11:40:34;;;;;;;7.43;3.33;;;23.90;99.90;;;;;;5040819;28;20479;-80
2021/07/30 11:43:08;;;;;;;7.03;5.50;;;24.00;99.90;;;;;;5033597;28;20487;-83
2021/07/30 11:45:35;;;;;;;6.73;4.20;;;24.20;99.90;;;;;;5029872;28;20467;-82
2021/07/30 11:48:10;;;;;;;7.30;3.00;;;24.10;99.90;;;;;;5026785;28;20504;-82
2021/07/30 11:50:38;;;;;;;4.43;3.37;;;24.00;99.90;;;;;;5028881;28;20432;-83
2021/07/30 11:53:08;;;;;;;5.03;2.77;;;24.10;99.90;;;;;;5026491;28;20562;-82
2021/07/30 11:55:35;;;;;;;4.00;2.80;;;24.00;99.90;;;;;;5027978;28;20543;-82
2021/07/30 11:58:11;;;;;;;9.33;3.00;;;23.90;99.90;;;;;;5027516;28;20470;-82
2021/07/30 12:00:37;;;;;;;5.90;3.00;;;23.80;99.90;;;;;;5036986;28;20501;-81
2021/07/30 12:03:18;;;;;;;3.77;3.47;;;23.50;99.90;;;;;;5038414;28;20464;-82
2021/07/30 12:05:45;;;;;;;6.23;3.67;;;23.60;99.90;;;;;;5038426;28;20431;-81
2021/07/30 12:08:12;;;;;;;4.97;3.50;;;23.60;99.90;;;;;;5038261;28;20436;-81
2021/07/30 12:10:40;;;;;;;3.03;2.83;;;23.70;99.90;;;;;;5038891;28;20427;-82
2021/07/30 12:13:09;;;;;;;4.63;3.57;;;23.90;99.90;;;;;;5038017;28;20444;-81
2021/07/30 12:15:37;;;;;;;3.00;2.70;;;24.00;99.90;;;;;;5037783;28;20417;-81
2021/07/30 12:18:05;;;;;;;5.13;3.57;;;24.00;99.90;;;;;;5028589;28;20436;-82
2021/07/30 12:20:34;;;;;;;4.73;4.03;;;24.10;99.90;;;;;;5026070;28;20444;-81
2021/07/30 12:23:06;;;;;;;3.80;3.00;;;24.20;99.90;;;;;;5024426;28;20514;-81
2021/07/30 12:25:37;;;;;;;10.07;4.57;;;24.30;99.90;;;;;;5025598;28;20912;-80
2021/07/30 12:28:06;;;;;;;6.73;3.40;;;24.40;99.90;;;;;;5025653;28;20459;-81
2021/07/30 12:30:32;;;;;;;5.30;3.20;;;24.40;99.90;;;;;;5023918;28;20498;-82
2021/07/30 12:32:59;;;;;;;6.50;4.27;;;;;;;;;;5023978;28;20463;-81
2021/07/30 12:35:36;;;;;;;4.37;3.37;;;24.40;99.90;;;;;;5024514;28;20602;-83
2021/07/30 12:38:06;;;;;;;5.10;3.50;;;24.50;99.90;;;;;;5032300;28;20432;-82
2021/07/30 12:40:33;;;;;;;7.97;3.80;;;24.40;99.90;;;;;;5034565;28;20966;-81
2021/07/30 12:43:14;;;;;;;7.90;3.70;;;24.50;99.90;;;;;;5036029;28;20460;-80
2021/07/30 12:45:44;;;;;;;4.70;3.23;;;24.50;99.90;;;;;;5032059;28;20852;-81
2021/07/30 12:48:19;;;;;;;3.77;3.47;;;24.50;99.90;;;;;;5025717;28;20954;-81
2021/07/30 12:50:48;;;;;;;5.20;4.07;;;24.50;99.90;;;;;;5024249;28;20471;-82
2021/07/30 12:53:16;;;;;;;6.10;4.80;;;24.70;99.90;;;;;;5030519;28;20460;-81
2021/07/30 12:56:01;;;;;;;4.67;3.50;;;24.70;99.90;;;;;;5029195;28;20494;-82